sensor_id;sensor_type;location;lat;lon;timestamp;P1;durP1;ratioP1;P2;durP2;ratioP2
71176;SDS011;58877;51.992;4.504;2023-11-22T00:01:21;8.97;;;8.90;;
71176;SDS011;58877;51.992;4.504;2023-11-22T00:03:48;8.51;;;8.36;;
71176;SDS011;58877;51.992;4.504;2023-11-22T00:06:15;8.00;;;7.93;;
71176;SDS011;58877;51.992;4.504;2023-11-22T00:08:41;8.14;;;8.03;;
71176;SDS011;58877;51.992;4.504;2023-11-22T00:11:07;8.18;;;8.06;;
71176;SDS011;58877;51.992;4.504;2023-11-22T00:13:32;8.27;;;8.24;;
71176;SDS011;58877;51.992;4.504;2023-11-22T00:15:58;7.60;;;7.60;;
71176;SDS011;58877;51.992;4.504;2023-11-22T00:18:23;7.85;;;7.84;;
71176;SDS011;58877;51.992;4.504;2023-11-22T00:20:51;7.62;;;7.62;;
71176;SDS011;58877;51.992;4.504;2023-11-22T00:23:16;7.87;;;7.81;;
71176;SDS011;58877;51.992;4.504;2023-11-22T00:25:42;7.47;;;7.39;;
71176;SDS011;58877;51.992;4.504;2023-11-22T00:28:08;7.86;;;7.85;;
71176;SDS011;58877;51.992;4.504;2023-11-22T00:30:33;7.48;;;7.44;;
71176;SDS011;58877;51.992;4.504;2023-11-22T00:32:59;7.63;;;7.60;;
71176;SDS011;58877;51.992;4.504;2023-11-22T00:35:24;7.67;;;7.66;;
71176;SDS011;58877;51.992;4.504;2023-11-22T00:37:50;7.90;;;7.83;;
71176;SDS011;58877;51.992;4.504;2023-11-22T00:40:16;7.71;;;7.62;;
71176;SDS011;58877;51.992;4.504;2023-11-22T00:42:41;7.76;;;7.74;;
71176;SDS011;58877;51.992;4.504;2023-11-22T00:45:08;7.35;;;7.30;;
71176;SDS011;58877;51.992;4.504;2023-11-22T00:47:35;7.55;;;7.54;;
71176;SDS011;58877;51.992;4.504;2023-11-22T00:50:01;7.58;;;7.52;;
71176;SDS011;58877;51.992;4.504;2023-11-22T00:52:29;7.12;;;7.04;;
71176;SDS011;58877;51.992;4.504;2023-11-22T00:54:55;7.90;;;7.80;;
71176;SDS011;58877;51.992;4.504;2023-11-22T00:57:24;7.89;;;7.82;;
71176;SDS011;58877;51.992;4.504;2023-11-22T00:59:51;7.91;;;7.90;;
71176;SDS011;58877;51.992;4.504;2023-11-22T01:02:19;8.37;;;8.28;;
71176;SDS011;58877;51.992;4.504;2023-11-22T01:04:45;7.80;;;7.73;;
71176;SDS011;58877;51.992;4.504;2023-11-22T01:07:11;7.70;;;7.69;;
71176;SDS011;58877;51.992;4.504;2023-11-22T01:09:37;8.28;;;8.19;;
71176;SDS011;58877;51.992;4.504;2023-11-22T01:12:02;7.90;;;7.83;;
71176;SDS011;58877;51.992;4.504;2023-11-22T01:14:28;7.84;;;7.80;;
71176;SDS011;58877;51.992;4.504;2023-11-22T01:16:54;7.40;;;7.38;;
71176;SDS011;58877;51.992;4.504;2023-11-22T01:19:20;7.38;;;7.38;;
71176;SDS011;58877;51.992;4.504;2023-11-22T01:21:46;7.67;;;7.62;;
71176;SDS011;58877;51.992;4.504;2023-11-22T01:24:13;7.69;;;7.59;;
71176;SDS011;58877;51.992;4.504;2023-11-22T01:26:40;8.13;;;8.12;;
71176;SDS011;58877;51.992;4.504;2023-11-22T01:29:06;8.03;;;8.02;;
71176;SDS011;58877;51.992;4.504;2023-11-22T01:31:31;8.14;;;8.14;;
71176;SDS011;58877;51.992;4.504;2023-11-22T01:33:58;7.78;;;7.77;;
71176;SDS011;58877;51.992;4.504;2023-11-22T01:36:24;8.36;;;8.35;;
71176;SDS011;58877;51.992;4.504;2023-11-22T01:38:51;8.08;;;8.08;;
71176;SDS011;58877;51.992;4.504;2023-11-22T01:41:17;8.31;;;8.29;;
71176;SDS011;58877;51.992;4.504;2023-11-22T01:43:43;7.75;;;7.75;;
71176;SDS011;58877;51.992;4.504;2023-11-22T01:46:09;7.79;;;7.78;;
71176;SDS011;58877;51.992;4.504;2023-11-22T01:48:49;8.45;;;8.41;;
71176;SDS011;58877;51.992;4.504;2023-11-22T01:51:19;8.01;;;7.92;;
71176;SDS011;58877;51.992;4.504;2023-11-22T01:53:50;7.87;;;7.72;;
71176;SDS011;58877;51.992;4.504;2023-11-22T01:56:21;7.08;;;7.03;;
71176;SDS011;58877;51.992;4.504;2023-11-22T01:58:49;7.59;;;7.52;;
71176;SDS011;58877;51.992;4.504;2023-11-22T02:01:16;7.48;;;7.44;;
71176;SDS011;58877;51.992;4.504;2023-11-22T02:03:42;7.75;;;7.69;;
71176;SDS011;58877;51.992;4.504;2023-11-22T02:06:07;7.35;;;7.31;;
71176;SDS011;58877;51.992;4.504;2023-11-22T02:08:36;7.08;;;7.05;;
71176;SDS011;58877;51.992;4.504;2023-11-22T02:11:04;6.89;;;6.89;;
71176;SDS011;58877;51.992;4.504;2023-11-22T02:13:30;7.54;;;7.53;;
71176;SDS011;58877;51.992;4.504;2023-11-22T02:15:56;7.91;;;7.86;;
71176;SDS011;58877;51.992;4.504;2023-11-22T02:18:25;7.62;;;7.58;;
71176;SDS011;58877;51.992;4.504;2023-11-22T02:20:51;7.77;;;7.72;;
71176;SDS011;58877;51.992;4.504;2023-11-22T02:23:17;7.63;;;7.57;;
71176;SDS011;58877;51.992;4.504;2023-11-22T02:25:43;7.50;;;7.45;;
71176;SDS011;58877;51.992;4.504;2023-11-22T02:28:09;7.81;;;7.76;;
71176;SDS011;58877;51.992;4.504;2023-11-22T02:30:35;7.11;;;7.11;;
71176;SDS011;58877;51.992;4.504;2023-11-22T02:33:01;7.14;;;7.14;;
71176;SDS011;58877;51.992;4.504;2023-11-22T02:35:27;7.82;;;7.82;;
71176;SDS011;58877;51.992;4.504;2023-11-22T02:37:53;6.81;;;6.81;;
71176;SDS011;58877;51.992;4.504;2023-11-22T02:40:19;6.71;;;6.65;;
71176;SDS011;58877;51.992;4.504;2023-11-22T02:42:47;7.57;;;7.50;;
71176;SDS011;58877;51.992;4.504;2023-11-22T02:45:17;7.02;;;6.95;;
71176;SDS011;58877;51.992;4.504;2023-11-22T02:47:44;7.57;;;7.45;;
71176;SDS011;58877;51.992;4.504;2023-11-22T02:50:14;7.21;;;7.14;;
71176;SDS011;58877;51.992;4.504;2023-11-22T02:52:42;7.34;;;7.29;;
71176;SDS011;58877;51.992;4.504;2023-11-22T02:55:08;7.08;;;6.99;;
71176;SDS011;58877;51.992;4.504;2023-11-22T02:57:37;7.44;;;7.30;;
71176;SDS011;58877;51.992;4.504;2023-11-22T03:00:06;6.98;;;6.92;;
71176;SDS011;58877;51.992;4.504;2023-11-22T03:02:33;7.02;;;6.96;;
71176;SDS011;58877;51.992;4.504;2023-11-22T03:05:00;7.69;;;7.65;;
71176;SDS011;58877;51.992;4.504;2023-11-22T03:07:26;7.36;;;7.29;;
71176;SDS011;58877;51.992;4.504;2023-11-22T03:09:51;7.72;;;7.63;;
71176;SDS011;58877;51.992;4.504;2023-11-22T03:12:18;7.41;;;7.32;;
71176;SDS011;58877;51.992;4.504;2023-11-22T03:14:45;8.02;;;7.92;;
71176;SDS011;58877;51.992;4.504;2023-11-22T03:17:11;7.93;;;7.79;;
71176;SDS011;58877;51.992;4.504;2023-11-22T03:19:38;7.81;;;7.77;;
71176;SDS011;58877;51.992;4.504;2023-11-22T03:22:05;7.79;;;7.79;;
71176;SDS011;58877;51.992;4.504;2023-11-22T03:24:31;6.65;;;6.64;;
71176;SDS011;58877;51.992;4.504;2023-11-22T03:27:00;7.34;;;7.33;;
71176;SDS011;58877;51.992;4.504;2023-11-22T03:29:26;6.74;;;6.72;;
71176;SDS011;58877;51.992;4.504;2023-11-22T03:31:52;7.02;;;6.96;;
71176;SDS011;58877;51.992;4.504;2023-11-22T03:34:19;7.49;;;7.37;;
71176;SDS011;58877;51.992;4.504;2023-11-22T03:36:45;6.99;;;6.91;;
71176;SDS011;58877;51.992;4.504;2023-11-22T03:39:13;7.16;;;7.09;;
71176;SDS011;58877;51.992;4.504;2023-11-22T03:41:40;7.23;;;7.18;;
71176;SDS011;58877;51.992;4.504;2023-11-22T03:44:06;7.12;;;7.10;;
71176;SDS011;58877;51.992;4.504;2023-11-22T03:46:35;7.56;;;7.51;;
71176;SDS011;58877;51.992;4.504;2023-11-22T03:49:02;7.30;;;7.27;;
71176;SDS011;58877;51.992;4.504;2023-11-22T03:51:38;6.69;;;6.67;;
71176;SDS011;58877;51.992;4.504;2023-11-22T03:54:04;6.98;;;6.98;;
71176;SDS011;58877;51.992;4.504;2023-11-22T03:56:30;7.40;;;7.37;;
71176;SDS011;58877;51.992;4.504;2023-11-22T03:58:56;6.81;;;6.78;;
71176;SDS011;58877;51.992;4.504;2023-11-22T04:01:21;6.70;;;6.70;;
71176;SDS011;58877;51.992;4.504;2023-11-22T04:03:47;6.81;;;6.77;;
71176;SDS011;58877;51.992;4.504;2023-11-22T04:06:17;6.98;;;6.87;;
71176;SDS011;58877;51.992;4.504;2023-11-22T04:08:44;6.64;;;6.61;;
71176;SDS011;58877;51.992;4.504;2023-11-22T04:11:11;7.34;;;7.34;;
71176;SDS011;58877;51.992;4.504;2023-11-22T04:13:37;7.21;;;7.13;;
71176;SDS011;58877;51.992;4.504;2023-11-22T04:16:03;6.96;;;6.88;;
71176;SDS011;58877;51.992;4.504;2023-11-22T04:18:30;6.66;;;6.60;;
71176;SDS011;58877;51.992;4.504;2023-11-22T04:20:55;6.91;;;6.86;;
71176;SDS011;58877;51.992;4.504;2023-11-22T04:23:26;7.24;;;7.24;;
71176;SDS011;58877;51.992;4.504;2023-11-22T04:25:51;6.98;;;6.98;;
71176;SDS011;58877;51.992;4.504;2023-11-22T04:28:17;6.71;;;6.67;;
71176;SDS011;58877;51.992;4.504;2023-11-22T04:30:43;6.94;;;6.87;;
71176;SDS011;58877;51.992;4.504;2023-11-22T04:33:08;6.45;;;6.34;;
71176;SDS011;58877;51.992;4.504;2023-11-22T04:35:34;7.06;;;6.90;;
71176;SDS011;58877;51.992;4.504;2023-11-22T04:38:02;7.23;;;7.19;;
71176;SDS011;58877;51.992;4.504;2023-11-22T04:40:29;7.15;;;7.08;;
71176;SDS011;58877;51.992;4.504;2023-11-22T04:42:55;7.04;;;7.00;;
71176;SDS011;58877;51.992;4.504;2023-11-22T04:45:20;6.92;;;6.87;;
71176;SDS011;58877;51.992;4.504;2023-11-22T04:47:46;7.36;;;7.36;;
71176;SDS011;58877;51.992;4.504;2023-11-22T04:50:14;7.54;;;7.54;;
71176;SDS011;58877;51.992;4.504;2023-11-22T04:52:39;7.28;;;7.28;;
71176;SDS011;58877;51.992;4.504;2023-11-22T04:55:05;7.30;;;7.29;;
71176;SDS011;58877;51.992;4.504;2023-11-22T04:57:31;7.24;;;7.15;;
71176;SDS011;58877;51.992;4.504;2023-11-22T04:59:56;7.35;;;7.23;;
71176;SDS011;58877;51.992;4.504;2023-11-22T05:02:22;7.81;;;7.72;;
71176;SDS011;58877;51.992;4.504;2023-11-22T05:04:48;7.33;;;7.28;;
71176;SDS011;58877;51.992;4.504;2023-11-22T05:07:15;8.05;;;8.03;;
71176;SDS011;58877;51.992;4.504;2023-11-22T05:09:41;8.16;;;8.09;;
71176;SDS011;58877;51.992;4.504;2023-11-22T05:12:09;7.63;;;7.56;;
71176;SDS011;58877;51.992;4.504;2023-11-22T05:14:35;7.97;;;7.95;;
71176;SDS011;58877;51.992;4.504;2023-11-22T05:17:01;7.88;;;7.80;;
71176;SDS011;58877;51.992;4.504;2023-11-22T05:19:27;8.46;;;8.30;;
71176;SDS011;58877;51.992;4.504;2023-11-22T05:21:52;7.65;;;7.57;;
71176;SDS011;58877;51.992;4.504;2023-11-22T05:24:18;7.54;;;7.54;;
71176;SDS011;58877;51.992;4.504;2023-11-22T05:26:44;7.93;;;7.90;;
71176;SDS011;58877;51.992;4.504;2023-11-22T05:29:10;7.81;;;7.73;;
71176;SDS011;58877;51.992;4.504;2023-11-22T05:31:36;7.88;;;7.79;;
71176;SDS011;58877;51.992;4.504;2023-11-22T05:34:02;8.16;;;8.13;;
71176;SDS011;58877;51.992;4.504;2023-11-22T05:36:28;8.66;;;8.59;;
71176;SDS011;58877;51.992;4.504;2023-11-22T05:38:55;8.72;;;8.62;;
71176;SDS011;58877;51.992;4.504;2023-11-22T05:41:24;8.70;;;8.65;;
71176;SDS011;58877;51.992;4.504;2023-11-22T05:43:51;8.80;;;8.73;;
71176;SDS011;58877;51.992;4.504;2023-11-22T05:46:24;9.12;;;9.12;;
71176;SDS011;58877;51.992;4.504;2023-11-22T05:48:52;9.64;;;9.58;;
71176;SDS011;58877;51.992;4.504;2023-11-22T05:51:19;10.16;;;9.98;;
71176;SDS011;58877;51.992;4.504;2023-11-22T05:53:45;9.48;;;9.38;;
71176;SDS011;58877;51.992;4.504;2023-11-22T05:56:10;9.49;;;9.45;;
71176;SDS011;58877;51.992;4.504;2023-11-22T05:58:37;9.88;;;9.73;;
71176;SDS011;58877;51.992;4.504;2023-11-22T06:01:07;11.06;;;10.81;;
71176;SDS011;58877;51.992;4.504;2023-11-22T06:03:36;9.92;;;9.81;;
71176;SDS011;58877;51.992;4.504;2023-11-22T06:06:04;10.34;;;10.25;;
71176;SDS011;58877;51.992;4.504;2023-11-22T06:08:30;10.19;;;10.14;;
71176;SDS011;58877;51.992;4.504;2023-11-22T06:10:56;10.42;;;10.38;;
71176;SDS011;58877;51.992;4.504;2023-11-22T06:13:23;10.05;;;10.05;;
71176;SDS011;58877;51.992;4.504;2023-11-22T06:15:49;9.67;;;9.66;;
71176;SDS011;58877;51.992;4.504;2023-11-22T06:18:15;9.35;;;9.34;;
71176;SDS011;58877;51.992;4.504;2023-11-22T06:20:41;10.20;;;10.08;;
71176;SDS011;58877;51.992;4.504;2023-11-22T06:23:07;9.91;;;9.85;;
71176;SDS011;58877;51.992;4.504;2023-11-22T06:25:34;9.79;;;9.76;;
71176;SDS011;58877;51.992;4.504;2023-11-22T06:28:03;10.68;;;10.66;;
71176;SDS011;58877;51.992;4.504;2023-11-22T06:30:28;10.27;;;10.21;;
71176;SDS011;58877;51.992;4.504;2023-11-22T06:32:55;10.95;;;10.82;;
71176;SDS011;58877;51.992;4.504;2023-11-22T06:35:21;10.88;;;10.80;;
71176;SDS011;58877;51.992;4.504;2023-11-22T06:37:47;11.63;;;11.46;;
71176;SDS011;58877;51.992;4.504;2023-11-22T06:40:13;10.76;;;10.72;;
71176;SDS011;58877;51.992;4.504;2023-11-22T06:42:40;11.90;;;11.74;;
71176;SDS011;58877;51.992;4.504;2023-11-22T06:45:09;12.68;;;12.38;;
71176;SDS011;58877;51.992;4.504;2023-11-22T06:47:35;11.58;;;11.38;;
71176;SDS011;58877;51.992;4.504;2023-11-22T06:50:02;11.80;;;11.63;;
71176;SDS011;58877;51.992;4.504;2023-11-22T06:52:34;12.06;;;11.84;;
71176;SDS011;58877;51.992;4.504;2023-11-22T06:55:01;11.42;;;11.35;;
71176;SDS011;58877;51.992;4.504;2023-11-22T06:57:27;11.68;;;11.61;;
71176;SDS011;58877;51.992;4.504;2023-11-22T06:59:57;11.81;;;11.74;;
71176;SDS011;58877;51.992;4.504;2023-11-22T07:02:23;12.23;;;12.10;;
71176;SDS011;58877;51.992;4.504;2023-11-22T07:04:49;11.01;;;10.96;;
71176;SDS011;58877;51.992;4.504;2023-11-22T07:07:15;11.49;;;11.47;;
71176;SDS011;58877;51.992;4.504;2023-11-22T07:09:44;11.67;;;11.53;;
71176;SDS011;58877;51.992;4.504;2023-11-22T07:12:11;11.79;;;11.67;;
71176;SDS011;58877;51.992;4.504;2023-11-22T07:14:37;11.09;;;11.01;;
71176;SDS011;58877;51.992;4.504;2023-11-22T07:17:03;11.21;;;11.10;;
71176;SDS011;58877;51.992;4.504;2023-11-22T07:19:38;11.56;;;11.33;;
71176;SDS011;58877;51.992;4.504;2023-11-22T07:22:08;11.72;;;11.51;;
71176;SDS011;58877;51.992;4.504;2023-11-22T07:24:41;11.37;;;11.13;;
71176;SDS011;58877;51.992;4.504;2023-11-22T07:27:12;12.00;;;11.81;;
71176;SDS011;58877;51.992;4.504;2023-11-22T07:29:42;11.88;;;11.75;;
71176;SDS011;58877;51.992;4.504;2023-11-22T07:32:08;12.42;;;12.23;;
71176;SDS011;58877;51.992;4.504;2023-11-22T07:34:34;11.89;;;11.73;;
71176;SDS011;58877;51.992;4.504;2023-11-22T07:37:01;11.38;;;11.28;;
71176;SDS011;58877;51.992;4.504;2023-11-22T07:39:27;11.67;;;11.54;;
71176;SDS011;58877;51.992;4.504;2023-11-22T07:41:56;11.90;;;11.87;;
71176;SDS011;58877;51.992;4.504;2023-11-22T07:44:31;11.50;;;11.36;;
71176;SDS011;58877;51.992;4.504;2023-11-22T07:46:58;11.85;;;11.63;;
71176;SDS011;58877;51.992;4.504;2023-11-22T07:49:27;12.66;;;12.42;;
71176;SDS011;58877;51.992;4.504;2023-11-22T07:51:56;12.71;;;12.42;;
71176;SDS011;58877;51.992;4.504;2023-11-22T07:54:22;12.28;;;12.17;;
71176;SDS011;58877;51.992;4.504;2023-11-22T07:56:48;11.85;;;11.69;;
71176;SDS011;58877;51.992;4.504;2023-11-22T07:59:14;12.36;;;12.20;;
71176;SDS011;58877;51.992;4.504;2023-11-22T08:01:43;12.44;;;12.28;;
71176;SDS011;58877;51.992;4.504;2023-11-22T08:04:13;12.52;;;12.33;;
71176;SDS011;58877;51.992;4.504;2023-11-22T08:06:39;12.90;;;12.70;;
71176;SDS011;58877;51.992;4.504;2023-11-22T08:09:04;12.01;;;11.82;;
71176;SDS011;58877;51.992;4.504;2023-11-22T08:11:30;12.43;;;12.28;;
71176;SDS011;58877;51.992;4.504;2023-11-22T08:13:57;12.14;;;12.02;;
71176;SDS011;58877;51.992;4.504;2023-11-22T08:16:24;12.85;;;12.49;;
71176;SDS011;58877;51.992;4.504;2023-11-22T08:18:51;12.55;;;12.27;;
71176;SDS011;58877;51.992;4.504;2023-11-22T08:21:16;13.20;;;13.08;;
71176;SDS011;58877;51.992;4.504;2023-11-22T08:23:46;12.72;;;12.60;;
71176;SDS011;58877;51.992;4.504;2023-11-22T08:26:12;12.86;;;12.70;;
71176;SDS011;58877;51.992;4.504;2023-11-22T08:28:39;12.79;;;12.59;;
71176;SDS011;58877;51.992;4.504;2023-11-22T08:31:05;12.92;;;12.79;;
71176;SDS011;58877;51.992;4.504;2023-11-22T08:33:34;12.83;;;12.66;;
71176;SDS011;58877;51.992;4.504;2023-11-22T08:36:00;12.77;;;12.68;;
71176;SDS011;58877;51.992;4.504;2023-11-22T08:38:27;12.57;;;12.47;;
71176;SDS011;58877;51.992;4.504;2023-11-22T08:40:53;12.49;;;12.38;;
71176;SDS011;58877;51.992;4.504;2023-11-22T08:43:20;12.59;;;12.48;;
71176;SDS011;58877;51.992;4.504;2023-11-22T08:45:49;13.04;;;12.81;;
71176;SDS011;58877;51.992;4.504;2023-11-22T08:48:14;13.01;;;12.86;;
71176;SDS011;58877;51.992;4.504;2023-11-22T08:50:42;13.32;;;13.15;;
71176;SDS011;58877;51.992;4.504;2023-11-22T08:53:10;13.63;;;13.46;;
71176;SDS011;58877;51.992;4.504;2023-11-22T08:55:35;12.92;;;12.72;;
71176;SDS011;58877;51.992;4.504;2023-11-22T08:58:01;12.87;;;12.69;;
71176;SDS011;58877;51.992;4.504;2023-11-22T09:00:29;12.85;;;12.64;;
71176;SDS011;58877;51.992;4.504;2023-11-22T09:02:57;12.96;;;12.91;;
71176;SDS011;58877;51.992;4.504;2023-11-22T09:05:25;12.86;;;12.72;;
71176;SDS011;58877;51.992;4.504;2023-11-22T09:07:52;13.45;;;13.34;;
71176;SDS011;58877;51.992;4.504;2023-11-22T09:10:20;13.06;;;12.85;;
71176;SDS011;58877;51.992;4.504;2023-11-22T09:12:47;12.74;;;12.63;;
71176;SDS011;58877;51.992;4.504;2023-11-22T09:15:13;13.28;;;13.17;;
71176;SDS011;58877;51.992;4.504;2023-11-22T09:17:42;13.43;;;13.30;;
71176;SDS011;58877;51.992;4.504;2023-11-22T09:20:12;13.51;;;13.39;;
71176;SDS011;58877;51.992;4.504;2023-11-22T09:22:45;13.04;;;13.03;;
71176;SDS011;58877;51.992;4.504;2023-11-22T09:25:16;13.91;;;13.71;;
71176;SDS011;58877;51.992;4.504;2023-11-22T09:27:47;14.19;;;13.91;;
71176;SDS011;58877;51.992;4.504;2023-11-22T09:30:16;13.48;;;13.37;;
71176;SDS011;58877;51.992;4.504;2023-11-22T09:35:34;13.76;;;13.69;;
71176;SDS011;58877;51.992;4.504;2023-11-22T09:38:01;12.94;;;12.87;;
71176;SDS011;58877;51.992;4.504;2023-11-22T09:40:28;13.68;;;13.60;;
71176;SDS011;58877;51.992;4.504;2023-11-22T09:42:57;14.39;;;14.22;;
71176;SDS011;58877;51.992;4.504;2023-11-22T09:45:27;13.54;;;13.44;;
71176;SDS011;58877;51.992;4.504;2023-11-22T09:47:57;13.84;;;13.73;;
71176;SDS011;58877;51.992;4.504;2023-11-22T09:53:10;14.18;;;13.92;;
71176;SDS011;58877;51.992;4.504;2023-11-22T09:55:47;13.58;;;13.33;;
71176;SDS011;58877;51.992;4.504;2023-11-22T09:58:13;14.07;;;13.80;;
71176;SDS011;58877;51.992;4.504;2023-11-22T10:00:42;13.88;;;13.69;;
71176;SDS011;58877;51.992;4.504;2023-11-22T10:03:09;14.57;;;14.39;;
71176;SDS011;58877;51.992;4.504;2023-11-22T10:05:38;14.06;;;13.94;;
71176;SDS011;58877;51.992;4.504;2023-11-22T10:08:06;14.05;;;13.94;;
71176;SDS011;58877;51.992;4.504;2023-11-22T10:10:34;13.86;;;13.65;;
71176;SDS011;58877;51.992;4.504;2023-11-22T10:13:01;14.44;;;14.18;;
71176;SDS011;58877;51.992;4.504;2023-11-22T10:15:31;14.09;;;13.90;;
71176;SDS011;58877;51.992;4.504;2023-11-22T10:17:58;13.99;;;13.82;;
71176;SDS011;58877;51.992;4.504;2023-11-22T10:20:38;14.06;;;13.94;;
71176;SDS011;58877;51.992;4.504;2023-11-22T10:23:09;13.62;;;13.38;;
71176;SDS011;58877;51.992;4.504;2023-11-22T10:25:37;13.44;;;13.31;;
71176;SDS011;58877;51.992;4.504;2023-11-22T10:28:09;13.31;;;13.20;;
71176;SDS011;58877;51.992;4.504;2023-11-22T10:30:34;13.25;;;13.20;;
71176;SDS011;58877;51.992;4.504;2023-11-22T10:33:01;12.68;;;12.60;;
71176;SDS011;58877;51.992;4.504;2023-11-22T10:35:28;12.98;;;12.76;;
71176;SDS011;58877;51.992;4.504;2023-11-22T10:37:56;12.55;;;12.33;;
71176;SDS011;58877;51.992;4.504;2023-11-22T10:40:24;13.00;;;12.84;;
71176;SDS011;58877;51.992;4.504;2023-11-22T10:42:53;12.11;;;12.01;;
71176;SDS011;58877;51.992;4.504;2023-11-22T10:45:22;13.26;;;13.06;;
71176;SDS011;58877;51.992;4.504;2023-11-22T10:47:53;12.75;;;12.67;;
71176;SDS011;58877;51.992;4.504;2023-11-22T10:50:20;12.62;;;12.55;;
71176;SDS011;58877;51.992;4.504;2023-11-22T10:52:47;12.37;;;12.19;;
71176;SDS011;58877;51.992;4.504;2023-11-22T10:55:20;12.53;;;12.30;;
71176;SDS011;58877;51.992;4.504;2023-11-22T10:57:47;11.69;;;11.45;;
71176;SDS011;58877;51.992;4.504;2023-11-22T11:00:19;10.86;;;10.69;;
71176;SDS011;58877;51.992;4.504;2023-11-22T11:02:50;11.01;;;10.91;;
71176;SDS011;58877;51.992;4.504;2023-11-22T11:05:24;11.26;;;11.16;;
71176;SDS011;58877;51.992;4.504;2023-11-22T11:08:08;10.48;;;10.43;;
71176;SDS011;58877;51.992;4.504;2023-11-22T11:10:41;10.16;;;10.12;;
71176;SDS011;58877;51.992;4.504;2023-11-22T11:13:08;10.28;;;10.25;;
71176;SDS011;58877;51.992;4.504;2023-11-22T11:15:34;10.21;;;10.09;;
71176;SDS011;58877;51.992;4.504;2023-11-22T11:18:01;10.76;;;10.63;;
71176;SDS011;58877;51.992;4.504;2023-11-22T11:20:33;9.81;;;9.79;;
71176;SDS011;58877;51.992;4.504;2023-11-22T11:23:12;10.19;;;10.06;;
71176;SDS011;58877;51.992;4.504;2023-11-22T11:25:39;10.07;;;9.89;;
71176;SDS011;58877;51.992;4.504;2023-11-22T11:28:09;11.25;;;11.10;;
71176;SDS011;58877;51.992;4.504;2023-11-22T11:30:41;11.40;;;11.23;;
71176;SDS011;58877;51.992;4.504;2023-11-22T11:33:11;11.19;;;11.14;;
71176;SDS011;58877;51.992;4.504;2023-11-22T11:38:12;10.94;;;10.87;;
71176;SDS011;58877;51.992;4.504;2023-11-22T11:40:40;10.99;;;10.88;;
71176;SDS011;58877;51.992;4.504;2023-11-22T11:43:08;11.18;;;11.00;;
71176;SDS011;58877;51.992;4.504;2023-11-22T11:45:36;11.28;;;11.28;;
71176;SDS011;58877;51.992;4.504;2023-11-22T11:48:04;11.37;;;11.36;;
71176;SDS011;58877;51.992;4.504;2023-11-22T11:50:32;11.08;;;11.02;;
71176;SDS011;58877;51.992;4.504;2023-11-22T11:53:04;11.53;;;11.47;;
71176;SDS011;58877;51.992;4.504;2023-11-22T11:55:30;11.22;;;11.07;;
71176;SDS011;58877;51.992;4.504;2023-11-22T11:57:56;10.69;;;10.68;;
71176;SDS011;58877;51.992;4.504;2023-11-22T12:00:23;10.22;;;10.02;;
71176;SDS011;58877;51.992;4.504;2023-11-22T12:02:50;9.92;;;9.78;;
71176;SDS011;58877;51.992;4.504;2023-11-22T12:05:18;9.53;;;9.40;;
71176;SDS011;58877;51.992;4.504;2023-11-22T12:07:45;10.23;;;10.17;;
71176;SDS011;58877;51.992;4.504;2023-11-22T12:10:11;10.86;;;10.85;;
71176;SDS011;58877;51.992;4.504;2023-11-22T12:12:37;9.59;;;9.58;;
71176;SDS011;58877;51.992;4.504;2023-11-22T12:15:04;9.70;;;9.70;;
71176;SDS011;58877;51.992;4.504;2023-11-22T12:17:36;9.81;;;9.79;;
71176;SDS011;58877;51.992;4.504;2023-11-22T12:20:10;9.82;;;9.68;;
71176;SDS011;58877;51.992;4.504;2023-11-22T12:22:42;9.62;;;9.58;;
71176;SDS011;58877;51.992;4.504;2023-11-22T12:25:12;8.85;;;8.83;;
71176;SDS011;58877;51.992;4.504;2023-11-22T12:27:39;8.81;;;8.77;;
71176;SDS011;58877;51.992;4.504;2023-11-22T12:30:09;8.90;;;8.81;;
71176;SDS011;58877;51.992;4.504;2023-11-22T12:33:07;8.69;;;8.53;;
71176;SDS011;58877;51.992;4.504;2023-11-22T12:35:35;9.03;;;8.98;;
71176;SDS011;58877;51.992;4.504;2023-11-22T12:38:05;9.09;;;8.97;;
71176;SDS011;58877;51.992;4.504;2023-11-22T12:40:33;8.45;;;8.26;;
71176;SDS011;58877;51.992;4.504;2023-11-22T12:43:07;7.92;;;7.83;;
71176;SDS011;58877;51.992;4.504;2023-11-22T12:45:35;7.87;;;7.80;;
71176;SDS011;58877;51.992;4.504;2023-11-22T12:48:25;7.91;;;7.85;;
71176;SDS011;58877;51.992;4.504;2023-11-22T12:51:01;8.17;;;8.12;;
71176;SDS011;58877;51.992;4.504;2023-11-22T12:53:27;9.01;;;8.95;;
71176;SDS011;58877;51.992;4.504;2023-11-22T12:55:56;8.86;;;8.76;;
71176;SDS011;58877;51.992;4.504;2023-11-22T12:58:23;8.54;;;8.51;;
71176;SDS011;58877;51.992;4.504;2023-11-22T13:00:54;9.49;;;9.46;;
71176;SDS011;58877;51.992;4.504;2023-11-22T13:03:25;9.23;;;9.15;;
71176;SDS011;58877;51.992;4.504;2023-11-22T13:05:52;9.07;;;9.01;;
71176;SDS011;58877;51.992;4.504;2023-11-22T13:08:18;9.21;;;9.18;;
71176;SDS011;58877;51.992;4.504;2023-11-22T13:10:47;9.62;;;9.51;;
71176;SDS011;58877;51.992;4.504;2023-11-22T13:13:37;10.20;;;10.06;;
71176;SDS011;58877;51.992;4.504;2023-11-22T13:16:04;9.70;;;9.64;;
71176;SDS011;58877;51.992;4.504;2023-11-22T13:18:30;10.19;;;10.13;;
71176;SDS011;58877;51.992;4.504;2023-11-22T13:20:56;10.56;;;10.40;;
71176;SDS011;58877;51.992;4.504;2023-11-22T13:23:21;10.65;;;10.48;;
71176;SDS011;58877;51.992;4.504;2023-11-22T13:25:47;10.45;;;10.44;;
71176;SDS011;58877;51.992;4.504;2023-11-22T13:28:14;11.30;;;11.24;;
71176;SDS011;58877;51.992;4.504;2023-11-22T13:30:39;10.46;;;10.38;;
71176;SDS011;58877;51.992;4.504;2023-11-22T13:33:05;10.03;;;10.01;;
71176;SDS011;58877;51.992;4.504;2023-11-22T13:35:31;10.42;;;10.40;;
71176;SDS011;58877;51.992;4.504;2023-11-22T13:38:03;10.98;;;10.92;;
71176;SDS011;58877;51.992;4.504;2023-11-22T13:40:35;11.01;;;10.89;;
71176;SDS011;58877;51.992;4.504;2023-11-22T13:43:04;10.73;;;10.59;;
71176;SDS011;58877;51.992;4.504;2023-11-22T13:45:30;10.76;;;10.65;;
71176;SDS011;58877;51.992;4.504;2023-11-22T13:47:56;10.67;;;10.64;;
71176;SDS011;58877;51.992;4.504;2023-11-22T13:50:32;10.51;;;10.44;;
71176;SDS011;58877;51.992;4.504;2023-11-22T13:52:58;11.05;;;10.97;;
71176;SDS011;58877;51.992;4.504;2023-11-22T13:55:28;10.77;;;10.75;;
71176;SDS011;58877;51.992;4.504;2023-11-22T13:57:54;10.89;;;10.76;;
71176;SDS011;58877;51.992;4.504;2023-11-22T14:00:26;10.96;;;10.80;;
71176;SDS011;58877;51.992;4.504;2023-11-22T14:02:57;10.98;;;10.89;;
71176;SDS011;58877;51.992;4.504;2023-11-22T14:05:29;10.64;;;10.61;;
71176;SDS011;58877;51.992;4.504;2023-11-22T14:07:55;11.12;;;11.07;;
71176;SDS011;58877;51.992;4.504;2023-11-22T14:10:21;11.02;;;10.90;;
71176;SDS011;58877;51.992;4.504;2023-11-22T14:13:08;11.73;;;11.51;;
71176;SDS011;58877;51.992;4.504;2023-11-22T14:15:34;10.79;;;10.69;;
71176;SDS011;58877;51.992;4.504;2023-11-22T14:18:00;11.58;;;11.52;;
71176;SDS011;58877;51.992;4.504;2023-11-22T14:20:29;11.68;;;11.56;;
71176;SDS011;58877;51.992;4.504;2023-11-22T14:22:55;11.78;;;11.65;;
71176;SDS011;58877;51.992;4.504;2023-11-22T14:25:23;11.84;;;11.72;;
71176;SDS011;58877;51.992;4.504;2023-11-22T14:27:50;11.81;;;11.71;;
71176;SDS011;58877;51.992;4.504;2023-11-22T14:30:22;11.73;;;11.71;;
71176;SDS011;58877;51.992;4.504;2023-11-22T14:32:53;12.13;;;12.06;;
71176;SDS011;58877;51.992;4.504;2023-11-22T14:35:19;12.44;;;12.26;;
71176;SDS011;58877;51.992;4.504;2023-11-22T14:37:51;13.56;;;13.47;;
71176;SDS011;58877;51.992;4.504;2023-11-22T14:40:18;13.23;;;13.04;;
71176;SDS011;58877;51.992;4.504;2023-11-22T14:42:49;13.15;;;13.05;;
71176;SDS011;58877;51.992;4.504;2023-11-22T14:45:17;13.50;;;13.47;;
71176;SDS011;58877;51.992;4.504;2023-11-22T14:47:45;14.60;;;14.51;;